createdAt,value
2019-01-26T00:01:11.027Z,95717.13
2019-01-26T00:03:44.810Z,95710.45
2019-01-26T00:06:16.482Z,95697.98
2019-01-26T00:08:49.304Z,95694.44
2019-01-26T00:11:20.612Z,95700.44
2019-01-26T00:13:54.628Z,95700.38
2019-01-26T00:16:25.837Z,95689.16
2019-01-26T00:18:59.690Z,95692.04
2019-01-26T00:21:31.660Z,95681.30
2019-01-26T00:24:05.989Z,95690.73
2019-01-26T00:26:38.862Z,95678.59
2019-01-26T00:29:10.308Z,95679.84
2019-01-26T00:31:43.729Z,95681.08
2019-01-26T00:34:18.113Z,95689.86
2019-01-26T00:36:51.825Z,95686.11
2019-01-26T00:39:26.210Z,95676.34
2019-01-26T00:41:59.866Z,95695.42
2019-01-26T00:44:31.205Z,95689.28
2019-01-26T00:47:02.492Z,95686.77
2019-01-26T00:49:36.229Z,95688.02
2019-01-26T00:52:09.852Z,95688.17
2019-01-26T00:54:41.741Z,95684.02
2019-01-26T00:57:13.585Z,95685.63
2019-01-26T00:59:46.062Z,95679.41
2019-01-26T01:02:17.947Z,95686.30
2019-01-26T01:04:50.950Z,95680.47
2019-01-26T01:07:23.875Z,95669.09
2019-01-26T01:09:55.384Z,95680.24
2019-01-26T01:12:26.739Z,95676.08
2019-01-26T01:14:59.955Z,95676.70
2019-01-26T01:17:33.763Z,95679.94
2019-01-26T01:20:06.299Z,95673.06
2019-01-26T01:22:37.501Z,95674.21
2019-01-26T01:25:12.186Z,95674.41
2019-01-26T01:27:44.126Z,95673.53
2019-01-26T01:30:19.926Z,95675.70
2019-01-26T01:32:51.982Z,95672.00
2019-01-26T01:35:25.376Z,95661.02
2019-01-26T01:37:59.940Z,95655.16
2019-01-26T01:40:34.379Z,95666.42
2019-01-26T01:43:07.150Z,95651.84
2019-01-26T01:45:38.458Z,95644.62
2019-01-26T01:48:11.949Z,95631.91
2019-01-26T01:50:47.376Z,95636.97
2019-01-26T01:53:22.964Z,95625.55
2019-01-26T01:55:54.184Z,95643.00
2019-01-26T01:58:28.152Z,95635.97
2019-01-26T02:01:00.983Z,95625.84
2019-01-26T02:03:33.129Z,95627.42
2019-01-26T02:06:10.052Z,95635.19
2019-01-26T02:08:43.433Z,95629.02
2019-01-26T02:11:15.342Z,95625.08
2019-01-26T02:13:49.199Z,95624.07
2019-01-26T02:16:22.742Z,95619.59
2019-01-26T02:18:56.359Z,95615.01
2019-01-26T02:21:30.186Z,95614.73
2019-01-26T02:24:04.232Z,95618.81
2019-01-26T02:26:37.161Z,95615.41
2019-01-26T02:29:09.203Z,95614.95
2019-01-26T02:31:42.020Z,95618.23
2019-01-26T02:34:15.288Z,95611.20
2019-01-26T02:36:46.530Z,95610.44
2019-01-26T02:39:18.529Z,95612.59
2019-01-26T02:41:52.964Z,95604.28
2019-01-26T02:44:28.942Z,95594.55
2019-01-26T02:47:00.454Z,95586.27
2019-01-26T02:49:35.908Z,95589.07
2019-01-26T02:52:08.460Z,95589.74
2019-01-26T02:54:42.750Z,95585.45
2019-01-26T02:57:16.431Z,95583.27
2019-01-26T02:59:49.193Z,95579.00
2019-01-26T03:02:21.005Z,95585.98
2019-01-26T03:04:52.295Z,95575.03
2019-01-26T03:07:25.156Z,95574.45
2019-01-26T03:09:59.106Z,95552.16
2019-01-26T03:12:30.401Z,95559.05
2019-01-26T03:15:05.000Z,95550.98
2019-01-26T03:17:36.559Z,95558.44
2019-01-26T03:20:10.981Z,95560.23
2019-01-26T03:22:43.900Z,95554.69
2019-01-26T03:25:19.301Z,95555.78
2019-01-26T03:27:51.534Z,95553.52
2019-01-26T03:30:25.704Z,95550.13
2019-01-26T03:32:59.561Z,95536.22
2019-01-26T03:35:35.022Z,95531.92
2019-01-26T03:38:07.434Z,95514.05
2019-01-26T03:40:38.645Z,95524.67
2019-01-26T03:43:12.139Z,95514.06
2019-01-26T03:45:43.561Z,95498.61
2019-01-26T03:48:15.583Z,95501.65
2019-01-26T03:50:47.469Z,95500.73
2019-01-26T03:53:18.820Z,95507.72
2019-01-26T03:55:52.685Z,95510.77
2019-01-26T03:58:24.680Z,95518.87
2019-01-26T04:00:58.019Z,95500.57
2019-01-26T04:03:30.224Z,95485.11
2019-01-26T04:06:02.824Z,95488.16
2019-01-26T04:08:36.695Z,95485.31
2019-01-26T04:11:12.130Z,95464.25
2019-01-26T04:13:47.243Z,95472.10
2019-01-26T04:16:18.461Z,95450.20
2019-01-26T04:18:51.238Z,95450.63
2019-01-26T04:21:23.588Z,95448.30
2019-01-26T04:23:56.795Z,95441.58
2019-01-26T04:26:32.410Z,95451.12
2019-01-26T04:29:05.848Z,95436.69
2019-01-26T04:31:38.698Z,95420.41
2019-01-26T04:34:09.966Z,95455.48
2019-01-26T04:36:41.202Z,95419.64
2019-01-26T04:39:12.491Z,95425.91
2019-01-26T04:41:45.649Z,95413.06
2019-01-26T04:44:16.858Z,95408.42
2019-01-26T04:46:49.648Z,95405.75
2019-01-26T04:49:21.847Z,95412.61
2019-01-26T04:51:53.775Z,95410.81
2019-01-26T04:54:26.964Z,95391.48
2019-01-26T04:56:59.256Z,95383.26
2019-01-26T04:59:32.039Z,95394.66
2019-01-26T05:02:05.831Z,95400.55
2019-01-26T05:04:39.812Z,95374.95
2019-01-26T05:07:11.096Z,95371.13
2019-01-26T05:09:44.970Z,95369.70
2019-01-26T05:12:16.183Z,95378.41
2019-01-26T05:14:49.940Z,95361.58
2019-01-26T05:17:21.935Z,95350.64
2019-01-26T05:19:54.915Z,95352.20
2019-01-26T05:22:28.719Z,95349.53
2019-01-26T05:24:59.905Z,95345.52
2019-01-26T05:27:34.013Z,95320.53
2019-01-26T05:30:12.299Z,95323.19
2019-01-26T05:32:44.896Z,95331.49
2019-01-26T05:35:19.046Z,95327.88
2019-01-26T05:37:50.229Z,95322.15
2019-01-26T05:40:21.424Z,95322.09
2019-01-26T05:42:55.170Z,95309.69
2019-01-26T05:45:30.840Z,95317.58
2019-01-26T05:48:03.221Z,95321.73
2019-01-26T05:50:35.583Z,95307.68
2019-01-26T05:53:08.268Z,95294.14
2019-01-26T05:55:40.156Z,95286.06
2019-01-26T05:58:12.126Z,95309.27
2019-01-26T06:00:44.478Z,95294.27
2019-01-26T06:03:18.533Z,95287.30
2019-01-26T06:05:52.235Z,95281.72
2019-01-26T06:08:27.795Z,95292.69
2019-01-26T06:11:00.338Z,95267.42
2019-01-26T06:13:35.137Z,95297.64
2019-01-26T06:16:10.698Z,95277.46
2019-01-26T06:18:43.421Z,95286.81
2019-01-26T06:21:17.336Z,95294.83
2019-01-26T06:23:49.142Z,95271.75
2019-01-26T06:26:21.242Z,95293.77
2019-01-26T06:28:54.943Z,95272.60
2019-01-26T06:31:27.740Z,95270.71
2019-01-26T06:33:59.192Z,95282.33
2019-01-26T06:36:33.247Z,95277.67
2019-01-26T06:39:08.436Z,95289.22
2019-01-26T06:41:41.394Z,95280.11
2019-01-26T06:44:12.983Z,95286.45
2019-01-26T06:46:46.435Z,95276.53
2019-01-26T06:49:17.951Z,95300.13
2019-01-26T06:51:54.679Z,95289.20
2019-01-26T06:54:28.464Z,95287.30
2019-01-26T06:56:59.696Z,95289.67
2019-01-26T06:59:31.378Z,95296.98
2019-01-26T07:02:06.097Z,95294.47
2019-01-26T07:04:45.777Z,95298.09
2019-01-26T07:07:20.234Z,95291.75
2019-01-26T07:09:53.687Z,95307.93
2019-01-26T07:12:26.089Z,95299.61
2019-01-26T07:14:57.292Z,95296.63
2019-01-26T07:17:28.561Z,95312.70
2019-01-26T07:20:03.682Z,95308.19
2019-01-26T07:22:36.459Z,95311.59
2019-01-26T07:25:10.521Z,95301.95
2019-01-26T07:27:44.595Z,95302.38
2019-01-26T07:30:20.038Z,95295.78
2019-01-26T07:32:51.512Z,95292.23
2019-01-26T07:35:25.560Z,95284.38
2019-01-26T07:37:59.541Z,95286.31
2019-01-26T07:40:33.570Z,95299.23
2019-01-26T07:43:10.252Z,95304.18
2019-01-26T07:45:44.740Z,95295.35
2019-01-26T07:48:18.724Z,95293.13
2019-01-26T07:50:52.550Z,95285.98
2019-01-26T07:53:24.730Z,95294.52
2019-01-26T07:55:57.713Z,95269.02
2019-01-26T07:58:28.958Z,95292.52
2019-01-26T08:01:02.764Z,95276.95
2019-01-26T08:03:36.689Z,95278.95
2019-01-26T08:06:11.412Z,95281.54
2019-01-26T08:08:44.671Z,95271.49
2019-01-26T08:11:18.483Z,95287.67
2019-01-26T08:13:49.695Z,95279.92
2019-01-26T08:16:22.743Z,95280.25
2019-01-26T08:18:54.943Z,95282.76
2019-01-26T08:21:27.833Z,95276.59
2019-01-26T08:24:01.873Z,95289.94
2019-01-26T08:26:34.853Z,95294.09
2019-01-26T08:29:09.462Z,95290.33
2019-01-26T08:31:41.186Z,95294.02
2019-01-26T08:34:12.466Z,95291.44
2019-01-26T08:36:45.975Z,95304.36
2019-01-26T08:39:19.805Z,95293.88
2019-01-26T08:41:55.520Z,95289.67
2019-01-26T08:44:29.073Z,95306.83
2019-01-26T08:47:02.082Z,95284.09
2019-01-26T08:49:33.294Z,95293.91
2019-01-26T08:52:06.896Z,95294.00
2019-01-26T08:54:38.135Z,95283.63
2019-01-26T08:57:12.132Z,95298.35
2019-01-26T08:59:46.084Z,95284.23
2019-01-26T09:02:50.752Z,95277.91
2019-01-26T09:05:24.128Z,95276.43
2019-01-26T09:07:55.399Z,95268.91
2019-01-26T09:10:28.974Z,95271.25
2019-01-26T09:13:03.027Z,95276.60
2019-01-26T09:15:36.936Z,95276.69
2019-01-26T09:18:12.581Z,95276.63
2019-01-26T09:20:45.038Z,95277.30
2019-01-26T09:23:16.294Z,95274.48
2019-01-26T09:25:50.106Z,95288.55
2019-01-26T09:28:24.083Z,95286.98
2019-01-26T09:30:58.068Z,95278.06
2019-01-26T09:33:32.091Z,95275.98
2019-01-26T09:36:06.589Z,95281.77
2019-01-26T09:38:42.539Z,95280.04
2019-01-26T09:41:16.207Z,95284.80
2019-01-26T09:43:48.167Z,95276.94
2019-01-26T09:46:22.509Z,95290.41
2019-01-26T09:48:55.894Z,95279.67
2019-01-26T09:51:27.269Z,95280.11
2019-01-26T09:54:01.694Z,95256.20
2019-01-26T09:56:34.240Z,95265.68
2019-01-26T09:59:08.657Z,95266.73
2019-01-26T10:01:42.078Z,95262.64
2019-01-26T10:04:14.344Z,95268.17
2019-01-26T10:06:48.936Z,95260.77
2019-01-26T10:09:23.152Z,95263.14
2019-01-26T10:11:55.342Z,95264.55
2019-01-26T10:14:26.638Z,95260.84
2019-01-26T10:17:00.717Z,95251.50
2019-01-26T10:19:35.013Z,95261.19
2019-01-26T10:22:08.220Z,95258.97
2019-01-26T10:24:42.339Z,95248.88
2019-01-26T10:27:13.589Z,95249.45
2019-01-26T10:29:47.431Z,95245.94
2019-01-26T10:32:19.462Z,95245.20
2019-01-26T10:34:52.371Z,95250.24
2019-01-26T10:37:26.926Z,95241.20
2019-01-26T10:40:00.270Z,95243.70
2019-01-26T10:42:34.421Z,95239.83
2019-01-26T10:45:07.576Z,95243.94
2019-01-26T10:47:43.391Z,95238.58
2019-01-26T10:50:15.507Z,95235.06
2019-01-26T10:52:48.219Z,95227.98
2019-01-26T10:55:20.691Z,95231.42
2019-01-26T10:57:54.496Z,95229.86
2019-01-26T11:00:28.689Z,95225.78
2019-01-26T11:03:04.651Z,95216.39
2019-01-26T11:05:38.101Z,95208.83
2019-01-26T11:08:10.396Z,95198.44
2019-01-26T11:10:41.602Z,95191.71
2019-01-26T11:13:12.864Z,95192.74
2019-01-26T11:15:48.273Z,95201.48
2019-01-26T11:18:20.757Z,95187.00
2019-01-26T11:20:53.533Z,95185.48
2019-01-26T11:23:29.192Z,95188.92
2019-01-26T11:26:01.856Z,95178.13
2019-01-26T11:28:33.368Z,95168.84
2019-01-26T11:31:11.215Z,95174.50
2019-01-26T11:33:45.016Z,95164.56
2019-01-26T11:36:18.710Z,95159.37
2019-01-26T11:38:50.792Z,95171.22
2019-01-26T11:41:22.984Z,95159.02
2019-01-26T11:43:56.786Z,95152.63
2019-01-26T11:46:38.299Z,95154.89
2019-01-26T11:49:15.096Z,95153.06
2019-01-26T11:51:48.993Z,95154.09
2019-01-26T11:54:21.725Z,95147.06
2019-01-26T11:56:59.260Z,95135.80
2019-01-26T11:59:33.107Z,95147.06
2019-01-26T12:02:22.274Z,95137.42
2019-01-26T12:05:05.488Z,95128.30
2019-01-26T12:07:39.018Z,95129.44
2019-01-26T12:10:11.840Z,95127.09
2019-01-26T12:12:43.695Z,95113.41
2019-01-26T12:15:16.750Z,95108.63
2019-01-26T12:17:47.966Z,95103.88
2019-01-26T12:20:19.969Z,95115.51
2019-01-26T12:22:52.850Z,95088.05
2019-01-26T12:25:24.387Z,95092.00
2019-01-26T12:27:57.990Z,95088.66
2019-01-26T12:30:32.456Z,95085.36
2019-01-26T12:33:06.309Z,95078.27
2019-01-26T12:35:39.986Z,95069.78
2019-01-26T12:38:11.823Z,95070.87
2019-01-26T12:40:45.098Z,95074.94
2019-01-26T12:43:16.368Z,95064.21
2019-01-26T12:45:51.745Z,95066.21
2019-01-26T12:48:24.493Z,95063.40
2019-01-26T12:50:58.035Z,95067.47
2019-01-26T12:53:32.098Z,95062.05
2019-01-26T12:56:06.838Z,95048.63
2019-01-26T12:58:45.980Z,95052.50
2019-01-26T13:01:18.893Z,95039.73
2019-01-26T13:03:51.048Z,95039.79
2019-01-26T13:06:24.978Z,95054.30
2019-01-26T13:08:56.197Z,95036.10
2019-01-26T13:11:30.696Z,95042.50
2019-01-26T13:14:04.535Z,95050.36
2019-01-26T13:16:38.068Z,95049.64
2019-01-26T13:19:12.361Z,95038.72
2019-01-26T13:21:44.335Z,95041.69
2019-01-26T13:24:16.379Z,95039.45
2019-01-26T13:26:47.559Z,95043.67
2019-01-26T13:29:19.125Z,95051.50
2019-01-26T13:31:52.087Z,95048.00
2019-01-26T13:34:26.030Z,95038.53
2019-01-26T13:37:00.057Z,95036.55
2019-01-26T13:39:34.077Z,95044.59
2019-01-26T13:42:08.339Z,95040.77
2019-01-26T13:44:39.556Z,95033.20
2019-01-26T13:47:10.804Z,95030.86
2019-01-26T13:49:44.317Z,95035.03
2019-01-26T13:52:16.229Z,95032.56
2019-01-26T13:54:49.258Z,95030.67
2019-01-26T13:57:20.458Z,95044.30
2019-01-26T13:59:54.434Z,95029.88
2019-01-26T14:02:26.156Z,95039.45
2019-01-26T14:04:59.439Z,95037.89
2019-01-26T14:07:34.866Z,95033.67
2019-01-26T14:10:08.419Z,95041.48
2019-01-26T14:12:43.107Z,95040.13
2019-01-26T14:15:16.797Z,95021.56
2019-01-26T14:17:51.124Z,95034.34
2019-01-26T14:20:23.685Z,95034.09
2019-01-26T14:22:58.351Z,95026.14
2019-01-26T14:25:32.550Z,95038.23
2019-01-26T14:28:05.604Z,95033.07
2019-01-26T14:30:41.941Z,95034.68
2019-01-26T14:33:13.237Z,95037.29
2019-01-26T14:35:44.681Z,95028.81
2019-01-26T14:38:18.392Z,95024.65
2019-01-26T14:40:49.737Z,95025.47
2019-01-26T14:43:23.351Z,95032.84
2019-01-26T14:45:54.547Z,95013.56
2019-01-26T14:48:29.377Z,95037.08
2019-01-26T14:51:03.084Z,95021.04
2019-01-26T14:53:36.102Z,95031.93
2019-01-26T14:56:07.270Z,95027.34
2019-01-26T14:58:43.593Z,95011.08
2019-01-26T15:01:16.602Z,95019.03
2019-01-26T15:03:48.596Z,95028.08
2019-01-26T15:06:22.591Z,95024.73
2019-01-26T15:08:58.100Z,95032.48
2019-01-26T15:11:30.621Z,95018.30
2019-01-26T15:14:06.160Z,95025.50
2019-01-26T15:16:40.362Z,95021.87
2019-01-26T15:19:12.845Z,95026.63
2019-01-26T15:21:46.814Z,95013.89
2019-01-26T15:24:18.052Z,95018.35
2019-01-26T15:26:53.432Z,95023.01
2019-01-26T15:29:27.364Z,95016.41
2019-01-26T15:31:59.803Z,95017.41
2019-01-26T15:34:31.738Z,95024.27
2019-01-26T15:37:04.677Z,95026.50
2019-01-26T15:39:38.622Z,95025.06
2019-01-26T15:42:09.836Z,95027.63
2019-01-26T15:44:43.678Z,95028.28
2019-01-26T15:47:16.807Z,95042.83
2019-01-26T15:49:48.960Z,95035.69
2019-01-26T15:52:21.849Z,95032.98
2019-01-26T15:54:53.651Z,95035.80
2019-01-26T15:57:27.650Z,95031.70
2019-01-26T16:00:03.165Z,95041.16
2019-01-26T16:02:35.660Z,95034.98
2019-01-26T16:05:09.229Z,95047.18
2019-01-26T16:07:42.872Z,95035.80
2019-01-26T16:10:20.544Z,95038.50
2019-01-26T16:12:53.533Z,95031.47
2019-01-26T16:15:28.173Z,95043.63
2019-01-26T16:18:02.521Z,95033.22
2019-01-26T16:20:35.973Z,95042.38
2019-01-26T16:23:09.987Z,95043.77
2019-01-26T16:25:41.193Z,95044.14
2019-01-26T16:28:12.413Z,95043.84
2019-01-26T16:30:43.625Z,95041.78
2019-01-26T16:33:17.183Z,95056.69
2019-01-26T16:35:48.976Z,95042.13
2019-01-26T16:38:22.185Z,95049.11
2019-01-26T16:40:55.926Z,95057.95
2019-01-26T16:43:29.918Z,95048.08
2019-01-26T16:46:04.292Z,95037.86
2019-01-26T16:48:37.077Z,95044.59
2019-01-26T16:51:10.718Z,95046.34
2019-01-26T16:53:43.868Z,95049.07
2019-01-26T16:56:16.838Z,95042.27
2019-01-26T16:58:53.113Z,95044.19
2019-01-26T17:01:24.815Z,95048.66
2019-01-26T17:03:57.595Z,95057.10
2019-01-26T17:06:29.995Z,95050.16
2019-01-26T17:09:04.951Z,95059.73
2019-01-26T17:11:38.178Z,95055.25
2019-01-26T17:14:11.081Z,95056.28
2019-01-26T17:16:45.091Z,95053.98
2019-01-26T17:19:16.641Z,95058.27
2019-01-26T17:21:47.890Z,95061.61
2019-01-26T17:24:21.230Z,95057.75
2019-01-26T17:26:55.235Z,95059.25
2019-01-26T17:29:29.210Z,95052.34
2019-01-26T17:32:04.738Z,95059.77
2019-01-26T17:34:37.934Z,95063.83
2019-01-26T17:37:11.419Z,95059.42
2019-01-26T17:39:45.277Z,95062.02
2019-01-26T17:42:18.044Z,95065.37
2019-01-26T17:44:50.144Z,95062.02
2019-01-26T17:47:22.610Z,95058.64
2019-01-26T17:49:55.148Z,95057.95
2019-01-26T17:52:27.381Z,95065.10
2019-01-26T17:55:00.385Z,95062.57
2019-01-26T17:57:31.589Z,95061.98
2019-01-26T18:00:02.894Z,95059.59
2019-01-26T18:02:36.404Z,95064.48
2019-01-26T18:05:11.030Z,95060.45
2019-01-26T18:07:44.427Z,95057.58
2019-01-26T18:10:18.070Z,95059.84
2019-01-26T18:12:50.375Z,95060.31
2019-01-26T18:15:23.389Z,95060.17
2019-01-26T18:17:54.584Z,95061.61
2019-01-26T18:20:27.001Z,95059.42
2019-01-26T18:23:00.864Z,95060.04
2019-01-26T18:25:37.014Z,95052.58
2019-01-26T18:28:10.503Z,95046.85
2019-01-26T18:30:44.622Z,95056.59
2019-01-26T18:33:15.823Z,95051.46
2019-01-26T18:35:49.478Z,95054.70
2019-01-26T18:38:23.333Z,95055.94
2019-01-26T18:40:54.644Z,95047.26
2019-01-26T18:43:28.416Z,95050.61
2019-01-26T18:45:59.688Z,95047.09
2019-01-26T18:48:33.195Z,95041.72
2019-01-26T18:51:06.538Z,95040.08
2019-01-26T18:53:38.424Z,95034.23
2019-01-26T18:56:11.535Z,95036.86
2019-01-26T18:58:45.525Z,95033.47
2019-01-26T19:01:19.556Z,95023.74
2019-01-26T19:04:20.392Z,95028.59
2019-01-26T19:06:51.614Z,95023.87
2019-01-26T19:09:22.841Z,95019.45
2019-01-26T19:11:56.621Z,95019.80
2019-01-26T19:14:30.820Z,95016.45
2019-01-26T19:17:02.057Z,95008.21
2019-01-26T19:19:33.308Z,95015.20
2019-01-26T19:22:08.441Z,95016.04
2019-01-26T19:24:40.771Z,95013.06
2019-01-26T19:27:13.610Z,94999.42
2019-01-26T19:29:45.736Z,94997.65
2019-01-26T19:32:21.358Z,94998.77
2019-01-26T19:34:54.848Z,94998.02
2019-01-26T19:37:29.449Z,94991.41
2019-01-26T19:40:01.901Z,94995.70
2019-01-26T19:42:35.830Z,94994.55
2019-01-26T19:45:11.119Z,94984.16
2019-01-26T19:47:42.682Z,94984.11
2019-01-26T19:50:16.961Z,94980.02
2019-01-26T19:52:51.924Z,94982.50
2019-01-26T19:55:25.808Z,94979.25
2019-01-26T19:58:00.322Z,94983.77
2019-01-26T20:00:33.086Z,94969.37
2019-01-26T20:03:06.762Z,94964.06
2019-01-26T20:05:40.973Z,94971.11
2019-01-26T20:08:13.260Z,94972.38
2019-01-26T20:10:44.962Z,94970.50
2019-01-26T20:13:16.993Z,94971.50
2019-01-26T20:15:49.862Z,94964.73
2019-01-26T20:18:21.876Z,94962.48
2019-01-26T20:20:54.053Z,94957.59
2019-01-26T20:23:26.015Z,94952.80
2019-01-26T20:25:57.526Z,94952.36
2019-01-26T20:28:31.051Z,94960.23
2019-01-26T20:31:05.185Z,94958.51
2019-01-26T20:33:36.356Z,94959.62
2019-01-26T20:36:09.814Z,94957.14
2019-01-26T20:38:45.130Z,94956.64
2019-01-26T20:41:17.456Z,94952.89
2019-01-26T20:43:48.720Z,94951.86
2019-01-26T20:46:20.322Z,94950.05
2019-01-26T20:48:55.094Z,94943.00
2019-01-26T20:51:28.136Z,94946.41
2019-01-26T20:54:02.210Z,94943.34
2019-01-26T20:56:36.640Z,94951.03
2019-01-26T20:59:09.266Z,94931.95
2019-01-26T21:01:46.184Z,94933.22
2019-01-26T21:04:21.837Z,94922.91
2019-01-26T21:06:56.134Z,94923.41
2019-01-26T21:09:28.610Z,94917.48
2019-01-26T21:12:02.896Z,94921.26
2019-01-26T21:14:37.098Z,94909.99
2019-01-26T21:17:10.288Z,94919.02
2019-01-26T21:19:44.300Z,94921.05
2019-01-26T21:22:17.637Z,94917.30
2019-01-26T21:24:48.946Z,94907.08
2019-01-26T21:27:20.233Z,94908.68
2019-01-26T21:29:52.230Z,94911.98
2019-01-26T21:32:24.113Z,94908.06
2019-01-26T21:34:56.272Z,94910.66
2019-01-26T21:37:29.284Z,94907.52
2019-01-26T21:40:03.252Z,94906.20
2019-01-26T21:42:35.314Z,94906.56
2019-01-26T21:45:08.811Z,94907.91
2019-01-26T21:47:41.322Z,94916.69
2019-01-26T21:50:16.133Z,94908.39
2019-01-26T21:52:50.321Z,94912.41
2019-01-26T21:55:24.367Z,94907.34
2019-01-26T21:57:58.457Z,94911.70
2019-01-26T22:00:33.989Z,94920.72
2019-01-26T22:03:06.735Z,94927.49
2019-01-26T22:05:40.567Z,94931.11
2019-01-26T22:08:13.781Z,94921.92
2019-01-26T22:10:45.445Z,94924.02
2019-01-26T22:13:19.446Z,94928.70
2019-01-26T22:15:53.446Z,94919.28
2019-01-26T22:18:27.526Z,94916.90
2019-01-26T22:21:02.212Z,94898.51
2019-01-26T22:23:34.906Z,94909.75
2019-01-26T22:26:08.297Z,94920.31
2019-01-26T22:28:42.845Z,94922.92
2019-01-26T22:31:14.050Z,94911.75
2019-01-26T22:33:45.523Z,94931.78
2019-01-26T22:36:24.823Z,94924.02
2019-01-26T22:38:58.327Z,94911.77
2019-01-26T22:41:31.949Z,94915.91
2019-01-26T22:44:05.077Z,94909.05
2019-01-26T22:46:38.543Z,94914.90
2019-01-26T22:49:13.044Z,94914.53
2019-01-26T22:51:45.649Z,94899.59
2019-01-26T22:54:19.793Z,94898.67
2019-01-26T22:56:52.807Z,94902.54
2019-01-26T22:59:25.576Z,94897.07
2019-01-26T23:01:59.222Z,94895.20
2019-01-26T23:04:55.079Z,94903.50
2019-01-26T23:07:55.794Z,94900.19
2019-01-26T23:11:14.044Z,94903.50
2019-01-26T23:14:16.143Z,94906.16
2019-01-26T23:17:41.740Z,94902.95
2019-01-26T23:20:57.308Z,94907.87
2019-01-26T23:23:48.858Z,94896.21
2019-01-26T23:27:05.298Z,94907.95
2019-01-26T23:30:20.061Z,94907.72
2019-01-26T23:32:53.324Z,94899.90
2019-01-26T23:35:24.632Z,94899.23
2019-01-26T23:37:59.990Z,94899.38
2019-01-26T23:40:32.405Z,94898.55
2019-01-26T23:43:05.990Z,94892.48
2019-01-26T23:45:40.027Z,94882.80
2019-01-26T23:48:13.278Z,94881.05
2019-01-26T23:50:45.528Z,94879.78
2019-01-26T23:53:18.741Z,94882.31
2019-01-26T23:55:50.332Z,94879.48
2019-01-26T23:58:25.039Z,94877.22
